Flight Track Log - Related Links

Times and Time Zones

All times are in EDT time to prevent confusion due to time zone crossing. See the ASA152 flight status page for this flight to view local times or setup timezone preferences in your user account.

Time Position Orientation Groundspeed Altitude Reporting Facility
EDT Latitude Longitude Course Direction KTS MPH feet Rate Location/Type
Sun 06:42:47 PM 66.7833 -162.2500 130° Southeast 250 288 9,300  Level Anchorage Center
Sun 06:47:49 PM 66.4500 -161.2667 125° Southeast 410 472 23,300 2,652 Climbing Anchorage Center
Sun 06:48:49 PM 66.3833 -161.0333 134° Southeast 430 495 25,300 2,250 Climbing Anchorage Center
Sun 06:49:49 PM 66.3000 -160.8167 127° Southeast 430 495 27,800 2,430 Climbing Anchorage Center
Sun 06:50:50 PM 66.2333 -160.6000 131° Southeast 420 483 30,200 1,934 Climbing Anchorage Center
Sun 06:51:50 PM 66.1500 -160.3667 133° Southeast 420 483 31,700 1,388 Climbing Anchorage Center
Sun 06:52:51 PM 66.0667 -160.1500 127° Southeast 430 495 33,000 645 Climbing Anchorage Center
Sun 06:53:51 PM 66.0000 -159.9333 133° Southeast 430 495 33,000  Level Anchorage Center
Sun 06:54:52 PM 65.9167 -159.7167 133° Southeast 430 495 33,000  Level Anchorage Center
Sun 06:55:52 PM 65.8333 -159.5000 133° Southeast 420 483 33,000  Level Anchorage Center
Sun 06:56:52 PM 65.7500 -159.2833 133° Southeast 440 506 33,000  Level Anchorage Center
Sun 06:57:53 PM 65.6667 -159.0667 131° Southeast 430 495 33,000  Level Anchorage Center
Sun 06:58:53 PM 65.5833 -158.8333 135° Southeast 420 483 33,000  Level Anchorage Center
Sun 06:59:54 PM 65.5000 -158.6333 129° Southeast 420 483 33,000  Level Anchorage Center
Sun 07:00:54 PM 65.4333 -158.4333 133° Southeast 420 483 33,000  Level Anchorage Center
Sun 07:01:54 PM 65.3500 -158.2167 135° Southeast 420 483 33,000  Level Anchorage Center
Sun 07:02:55 PM 65.2667 -158.0167 135° Southeast 420 483 33,000  Level Anchorage Center
Sun 07:03:55 PM 65.1833 -157.8167 135° Southeast 420 483 33,000  Level Anchorage Center
Sun 07:04:55 PM 65.1000 -157.6167 135° Southeast 420 483 33,000  Level Anchorage Center
Sun 07:05:56 PM 65.0167 -157.4167 134° Southeast 420 483 33,000  Level Anchorage Center
Sun 07:06:56 PM 64.9333 -157.2167 132° Southeast 420 483 33,000  Level Anchorage Center
Sun 07:07:56 PM 64.8500 -157.0000 133° Southeast 420 483 33,000  Level Anchorage Center
Sun 07:08:57 PM 64.7833 -156.8333 134° Southeast 410 472 33,000  Level Anchorage Center
Sun 07:09:57 PM 64.7000 -156.6333 134° Southeast 410 472 33,000  Level Anchorage Center
Sun 07:10:57 PM 64.6167 -156.4333 134° Southeast 410 472 33,000  Level Anchorage Center
Sun 07:11:58 PM 64.5333 -156.2333 134° Southeast 420 483 33,000  Level Anchorage Center
Sun 07:12:58 PM 64.4500 -156.0333 136° Southeast 410 472 33,000  Level Anchorage Center
Sun 07:13:58 PM 64.3667 -155.8500 136° Southeast 410 472 33,000  Level Anchorage Center
Sun 07:14:59 PM 64.2833 -155.6667 134° Southeast 420 483 33,000  Level Anchorage Center
Sun 07:16:00 PM 64.2000 -155.4667 136° Southeast 420 483 33,000  Level Anchorage Center
Sun 07:17:00 PM 64.1167 -155.2833 136° Southeast 420 483 33,000  Level Anchorage Center
Sun 07:18:00 PM 64.0333 -155.1000 136° Southeast 420 483 33,000  Level Anchorage Center
Sun 07:19:00 PM 63.9500 -154.9167 141° Southeast 420 483 33,000  Level Anchorage Center
Sun 07:20:01 PM 63.8500 -154.7333 136° Southeast 420 483 33,000  Level Anchorage Center
Sun 07:21:01 PM 63.7667 -154.5500 132° Southeast 410 472 33,000  Level Anchorage Center
Sun 07:22:01 PM 63.7000 -154.3833 136° Southeast 400 460 33,000  Level Anchorage Center
Sun 07:23:02 PM 63.6167 -154.2000 138° Southeast 410 472 33,000  Level Anchorage Center
Sun 07:24:03 PM 63.5333 -154.0333 135° Southeast 400 460 33,000  Level Anchorage Center
Sun 07:25:03 PM 63.4500 -153.8500 141° Southeast 410 472 33,000  Level Anchorage Center
Sun 07:26:03 PM 63.3500 -153.6667 138° Southeast 410 472 33,000  Level Anchorage Center
Sun 07:28:04 PM 63.1833 -153.3333 135° Southeast 420 483 33,000  Level Anchorage Center
Sun 07:29:04 PM 63.1000 -153.1500 138° Southeast 410 472 33,000  Level Anchorage Center
Sun 07:30:05 PM 63.0167 -152.9833 138° Southeast 430 495 33,000  Level Anchorage Center
Sun 07:31:05 PM 62.9333 -152.8167 137° Southeast 400 460 33,000  Level Anchorage Center
Sun 07:34:06 PM 62.6833 -152.3167 137° Southeast 400 460 33,000  Level Anchorage Center
Sun 07:35:06 PM 62.6000 -152.1500 142° Southeast 370 426 33,000  Level Anchorage Center
Sun 07:36:07 PM 62.5000 -151.9833 137° Southeast 420 483 33,000  Level Anchorage Center
Sun 07:37:07 PM 62.4167 -151.8167 140° Southeast 420 483 33,000 -50 Level Anchorage Center
Sun 07:38:08 PM 62.3333 -151.6667 137° Southeast 410 472 32,900 -1,770 Descending Anchorage Center
Sun 07:39:09 PM 62.2500 -151.5000 139° Southeast 410 472 29,400 -3,769 Descending Anchorage Center
Sun 07:40:09 PM 62.1500 -151.3167 140° Southeast 410 472 25,300 -3,500 Descending Anchorage Center
Sun 07:41:09 PM 62.0667 -151.1667 140° Southeast 380 437 22,400 -2,926 Descending Anchorage Center
Sun 07:42:10 PM 61.9833 -151.0167 140° Southeast 360 414 19,400 -2,975 Descending Anchorage Center
Sun 07:43:10 PM 61.9167 -150.9000 148° Southeast 340 391 16,400 -3,000 Descending Anchorage Center
Sun 07:50:32 PM 61.2826 -150.0824 150° Southeast  Level FlightAware Approximate
Sun 07:51:32 PM 61.1940 -149.9773 207° Southwest  Level FlightAware Approximate
Sun 07:52:32 PM 61.1028 -150.0728 349° North  Level Estimated
Sun 07:53:32 PM 61.4123 -150.1955 154° Southeast  Level FlightAware Approximate
Sun 07:54:32 PM 61.3203 -150.1030 154° Southeast  Level FlightAware Approximate
Sun 07:55:32 PM 61.2282 -150.0111 168° South  Level FlightAware Approximate
Sun 07:56:32 PM 61.1667 -149.9833 316° Northwest  Level FlightAware Approximate
Sun 07:57:32 PM 61.2400 -150.1308 136° Southeast  Level Estimated
Sun 07:58:32 PM 61.1667 -149.9833 316° Northwest  Level FlightAware Approximate
Sun 07:59:32 PM 61.2400 -150.1308 136° Southeast  Level Estimated
Sun 08:00:32 PM 61.1667 -149.9833 316° Northwest  Level FlightAware Approximate
Sun 08:01:32 PM 61.2400 -150.1308 136° Southeast  Level Estimated
Sun 08:02:32 PM 61.1667 -149.9833 136° Southeast  Level FlightAware Approximate

Login

Don't have an account? Register now (free) for customized features, flight alerts, and more!